sensor_id;sensor_type;location;lat;lon;timestamp;pressure;altitude;pressure_sealevel;temperature;humidity
13013;BME280;22580;57.670;12.006;2023-05-15T00:01:23;101415.94;;;23.00;42.43
13013;BME280;22580;57.670;12.006;2023-05-15T00:03:50;101411.00;;;22.96;43.04
13013;BME280;22580;57.670;12.006;2023-05-15T00:06:17;101404.38;;;22.90;42.96
13013;BME280;22580;57.670;12.006;2023-05-15T00:08:45;101396.88;;;22.76;43.55
13013;BME280;22580;57.670;12.006;2023-05-15T00:11:12;101401.28;;;23.01;42.80
13013;BME280;22580;57.670;12.006;2023-05-15T00:13:39;101404.19;;;22.75;43.16
13013;BME280;22580;57.670;12.006;2023-05-15T00:16:06;101407.44;;;22.87;42.98
13013;BME280;22580;57.670;12.006;2023-05-15T00:18:33;101389.38;;;22.78;43.13
13013;BME280;22580;57.670;12.006;2023-05-15T00:21:00;101395.34;;;22.89;43.19
13013;BME280;22580;57.670;12.006;2023-05-15T00:23:27;101370.31;;;22.86;42.82
13013;BME280;22580;57.670;12.006;2023-05-15T00:25:56;101388.38;;;22.79;43.33
13013;BME280;22580;57.670;12.006;2023-05-15T00:28:23;101386.47;;;22.71;43.10
13013;BME280;22580;57.670;12.006;2023-05-15T00:30:50;101383.25;;;22.84;43.34
13013;BME280;22580;57.670;12.006;2023-05-15T00:33:17;101379.31;;;22.70;43.36
13013;BME280;22580;57.670;12.006;2023-05-15T00:35:44;101375.56;;;22.71;43.67
13013;BME280;22580;57.670;12.006;2023-05-15T00:38:11;101375.09;;;22.84;43.15
13013;BME280;22580;57.670;12.006;2023-05-15T00:40:40;101375.06;;;22.76;43.02
13013;BME280;22580;57.670;12.006;2023-05-15T00:43:10;101368.94;;;22.74;42.80
13013;BME280;22580;57.670;12.006;2023-05-15T00:45:38;101364.34;;;22.66;43.43
13013;BME280;22580;57.670;12.006;2023-05-15T00:48:08;101362.47;;;22.67;43.71
13013;BME280;22580;57.670;12.006;2023-05-15T00:50:38;101366.06;;;22.59;43.63
13013;BME280;22580;57.670;12.006;2023-05-15T00:53:07;101366.38;;;22.72;43.29
13013;BME280;22580;57.670;12.006;2023-05-15T00:55:34;101366.41;;;22.56;43.44
13013;BME280;22580;57.670;12.006;2023-05-15T00:58:01;101363.72;;;22.40;43.70
13013;BME280;22580;57.670;12.006;2023-05-15T01:00:30;101366.44;;;22.48;43.49
13013;BME280;22580;57.670;12.006;2023-05-15T01:03:01;101363.84;;;22.54;43.38
13013;BME280;22580;57.670;12.006;2023-05-15T01:05:28;101357.88;;;22.59;43.33
13013;BME280;22580;57.670;12.006;2023-05-15T01:08:00;101350.94;;;22.32;43.95
13013;BME280;22580;57.670;12.006;2023-05-15T01:10:33;101360.47;;;22.20;44.31
13013;BME280;22580;57.670;12.006;2023-05-15T01:13:01;101352.47;;;22.27;44.09
13013;BME280;22580;57.670;12.006;2023-05-15T01:15:29;101351.09;;;22.47;43.84
13013;BME280;22580;57.670;12.006;2023-05-15T01:17:58;101344.81;;;22.46;43.70
13013;BME280;22580;57.670;12.006;2023-05-15T01:20:25;101352.81;;;22.48;43.69
13013;BME280;22580;57.670;12.006;2023-05-15T01:23:04;101350.59;;;22.43;43.88
13013;BME280;22580;57.670;12.006;2023-05-15T01:26:07;101339.03;;;22.49;43.77
13013;BME280;22580;57.670;12.006;2023-05-15T01:28:44;101342.44;;;22.43;44.00
13013;BME280;22580;57.670;12.006;2023-05-15T01:31:15;101328.97;;;22.17;44.18
13013;BME280;22580;57.670;12.006;2023-05-15T01:33:45;101342.25;;;22.29;44.08
13013;BME280;22580;57.670;12.006;2023-05-15T01:36:19;101337.66;;;22.29;44.38
13013;BME280;22580;57.670;12.006;2023-05-15T01:38:51;101324.91;;;22.05;44.62
13013;BME280;22580;57.670;12.006;2023-05-15T01:41:28;101324.00;;;21.97;45.08
13013;BME280;22580;57.670;12.006;2023-05-15T01:44:04;101344.31;;;22.27;44.65
13013;BME280;22580;57.670;12.006;2023-05-15T01:46:34;101333.25;;;22.12;44.84
13013;BME280;22580;57.670;12.006;2023-05-15T01:49:02;101342.78;;;22.32;44.43
13013;BME280;22580;57.670;12.006;2023-05-15T01:51:31;101331.03;;;22.15;44.88
13013;BME280;22580;57.670;12.006;2023-05-15T01:53:59;101340.91;;;22.24;45.07
13013;BME280;22580;57.670;12.006;2023-05-15T01:56:26;101339.38;;;22.14;45.09
13013;BME280;22580;57.670;12.006;2023-05-15T01:58:54;101334.56;;;22.00;45.23
13013;BME280;22580;57.670;12.006;2023-05-15T02:01:26;101339.63;;;21.78;46.04
13013;BME280;22580;57.670;12.006;2023-05-15T02:03:53;101318.56;;;21.88;45.85
13013;BME280;22580;57.670;12.006;2023-05-15T02:06:21;101326.72;;;21.80;46.19
13013;BME280;22580;57.670;12.006;2023-05-15T02:08:50;101325.84;;;21.80;45.98
13013;BME280;22580;57.670;12.006;2023-05-15T02:11:17;101327.56;;;21.81;45.93
13013;BME280;22580;57.670;12.006;2023-05-15T02:13:44;101314.97;;;21.80;45.92
13013;BME280;22580;57.670;12.006;2023-05-15T02:16:11;101309.03;;;21.84;45.97
13013;BME280;22580;57.670;12.006;2023-05-15T02:18:42;101319.41;;;21.89;45.79
13013;BME280;22580;57.670;12.006;2023-05-15T02:21:09;101316.84;;;21.63;46.75
13013;BME280;22580;57.670;12.006;2023-05-15T02:23:36;101316.31;;;21.51;47.06
13013;BME280;22580;57.670;12.006;2023-05-15T02:29:01;101311.56;;;21.78;46.71
13013;BME280;22580;57.670;12.006;2023-05-15T02:31:35;101305.78;;;21.73;46.60
13013;BME280;22580;57.670;12.006;2023-05-15T02:34:13;101312.41;;;21.78;46.28
13013;BME280;22580;57.670;12.006;2023-05-15T02:36:43;101317.34;;;21.83;45.93
13013;BME280;22580;57.670;12.006;2023-05-15T02:39:13;101322.34;;;22.04;45.68
13013;BME280;22580;57.670;12.006;2023-05-15T02:41:42;101315.53;;;21.25;47.75
13013;BME280;22580;57.670;12.006;2023-05-15T02:44:11;101312.09;;;21.65;47.00
13013;BME280;22580;57.670;12.006;2023-05-15T02:46:39;101308.00;;;21.85;46.36
13013;BME280;22580;57.670;12.006;2023-05-15T02:49:09;101300.00;;;21.76;46.41
13013;BME280;22580;57.670;12.006;2023-05-15T02:51:37;101302.91;;;21.82;46.68
13013;BME280;22580;57.670;12.006;2023-05-15T02:54:04;101313.97;;;21.65;47.20
13013;BME280;22580;57.670;12.006;2023-05-15T02:56:33;101306.09;;;21.53;47.54
13013;BME280;22580;57.670;12.006;2023-05-15T02:59:00;101310.19;;;21.74;46.90
13013;BME280;22580;57.670;12.006;2023-05-15T03:01:27;101312.59;;;21.85;46.82
13013;BME280;22580;57.670;12.006;2023-05-15T03:03:54;101296.25;;;21.77;47.02
13013;BME280;22580;57.670;12.006;2023-05-15T03:06:22;101300.66;;;21.70;47.29
13013;BME280;22580;57.670;12.006;2023-05-15T03:08:49;101293.53;;;21.61;47.45
13013;BME280;22580;57.670;12.006;2023-05-15T03:11:16;101299.81;;;21.69;46.88
13013;BME280;22580;57.670;12.006;2023-05-15T03:13:43;101292.84;;;21.50;47.27
13013;BME280;22580;57.670;12.006;2023-05-15T03:16:10;101297.22;;;21.35;47.76
13013;BME280;22580;57.670;12.006;2023-05-15T03:18:37;101296.19;;;21.28;48.07
13013;BME280;22580;57.670;12.006;2023-05-15T03:21:04;101286.94;;;21.21;48.50
13013;BME280;22580;57.670;12.006;2023-05-15T03:23:32;101289.91;;;21.02;49.36
13013;BME280;22580;57.670;12.006;2023-05-15T03:25:59;101289.38;;;21.32;48.62
13013;BME280;22580;57.670;12.006;2023-05-15T03:28:27;101294.47;;;21.27;48.63
13013;BME280;22580;57.670;12.006;2023-05-15T03:30:54;101282.00;;;21.16;48.84
13013;BME280;22580;57.670;12.006;2023-05-15T03:33:20;101279.06;;;21.02;49.42
13013;BME280;22580;57.670;12.006;2023-05-15T03:35:47;101272.28;;;21.06;49.22
13013;BME280;22580;57.670;12.006;2023-05-15T03:38:15;101269.66;;;21.22;48.91
13013;BME280;22580;57.670;12.006;2023-05-15T03:40:43;101271.28;;;21.15;49.23
13013;BME280;22580;57.670;12.006;2023-05-15T03:43:10;101272.19;;;21.23;49.11
13013;BME280;22580;57.670;12.006;2023-05-15T03:45:38;101262.34;;;21.31;48.90
13013;BME280;22580;57.670;12.006;2023-05-15T03:48:05;101257.63;;;21.49;48.06
13013;BME280;22580;57.670;12.006;2023-05-15T03:50:32;101263.28;;;21.64;47.99
13013;BME280;22580;57.670;12.006;2023-05-15T03:52:59;101254.41;;;21.53;48.03
13013;BME280;22580;57.670;12.006;2023-05-15T03:55:26;101270.22;;;21.74;47.46
13013;BME280;22580;57.670;12.006;2023-05-15T03:57:56;101260.88;;;21.77;47.58
13013;BME280;22580;57.670;12.006;2023-05-15T04:00:23;101257.81;;;21.72;47.46
13013;BME280;22580;57.670;12.006;2023-05-15T04:02:50;101261.03;;;21.75;47.59
13013;BME280;22580;57.670;12.006;2023-05-15T04:05:17;101256.63;;;21.82;47.51
13013;BME280;22580;57.670;12.006;2023-05-15T04:07:46;101253.41;;;21.95;47.03
13013;BME280;22580;57.670;12.006;2023-05-15T04:10:13;101252.88;;;21.75;47.39
13013;BME280;22580;57.670;12.006;2023-05-15T04:12:40;101258.50;;;21.82;47.28
13013;BME280;22580;57.670;12.006;2023-05-15T04:15:15;101263.78;;;22.00;46.76
13013;BME280;22580;57.670;12.006;2023-05-15T04:17:43;101268.06;;;22.18;46.32
13013;BME280;22580;57.670;12.006;2023-05-15T04:20:12;101264.66;;;22.08;46.17
13013;BME280;22580;57.670;12.006;2023-05-15T04:25:07;101263.97;;;22.14;45.93
13013;BME280;22580;57.670;12.006;2023-05-15T04:27:35;101242.50;;;21.95;45.93
13013;BME280;22580;57.670;12.006;2023-05-15T04:30:02;101251.72;;;22.27;45.34
13013;BME280;22580;57.670;12.006;2023-05-15T04:32:31;101258.13;;;22.50;44.86
13013;BME280;22580;57.670;12.006;2023-05-15T04:34:59;101262.75;;;22.33;45.36
13013;BME280;22580;57.670;12.006;2023-05-15T04:37:28;101249.00;;;22.10;46.15
13013;BME280;22580;57.670;12.006;2023-05-15T04:39:55;101258.03;;;22.11;46.18
13013;BME280;22580;57.670;12.006;2023-05-15T04:42:22;101249.84;;;22.19;46.08
13013;BME280;22580;57.670;12.006;2023-05-15T04:44:49;101245.75;;;21.90;46.38
13013;BME280;22580;57.670;12.006;2023-05-15T04:47:16;101250.84;;;22.26;45.55
13013;BME280;22580;57.670;12.006;2023-05-15T04:49:45;101245.06;;;22.29;45.52
13013;BME280;22580;57.670;12.006;2023-05-15T04:52:14;101244.16;;;22.53;44.71
13013;BME280;22580;57.670;12.006;2023-05-15T04:54:41;101251.09;;;22.64;44.37
13013;BME280;22580;57.670;12.006;2023-05-15T04:57:08;101239.06;;;22.50;44.52
13013;BME280;22580;57.670;12.006;2023-05-15T04:59:35;101242.69;;;22.26;44.91
13013;BME280;22580;57.670;12.006;2023-05-15T05:02:02;101236.19;;;22.35;44.95
13013;BME280;22580;57.670;12.006;2023-05-15T05:04:29;101238.72;;;22.45;44.88
13013;BME280;22580;57.670;12.006;2023-05-15T05:06:57;101223.13;;;22.70;44.17
13013;BME280;22580;57.670;12.006;2023-05-15T05:09:24;101225.00;;;22.69;44.14
13013;BME280;22580;57.670;12.006;2023-05-15T05:11:51;101227.00;;;22.92;43.38
13013;BME280;22580;57.670;12.006;2023-05-15T05:14:18;101216.56;;;23.49;41.55
13013;BME280;22580;57.670;12.006;2023-05-15T05:16:45;101222.28;;;23.39;42.03
13013;BME280;22580;57.670;12.006;2023-05-15T05:19:12;101228.19;;;23.74;40.94
13013;BME280;22580;57.670;12.006;2023-05-15T05:21:38;101223.00;;;23.79;40.51
13013;BME280;22580;57.670;12.006;2023-05-15T05:24:07;101203.69;;;23.66;40.65
13013;BME280;22580;57.670;12.006;2023-05-15T05:26:34;101213.56;;;23.67;40.84
13013;BME280;22580;57.670;12.006;2023-05-15T05:29:00;101209.59;;;23.92;40.78
13013;BME280;22580;57.670;12.006;2023-05-15T05:31:27;101221.28;;;24.01;40.07
13013;BME280;22580;57.670;12.006;2023-05-15T05:33:54;101212.00;;;24.10;39.48
13013;BME280;22580;57.670;12.006;2023-05-15T05:36:21;101213.41;;;24.21;39.36
13013;BME280;22580;57.670;12.006;2023-05-15T05:38:48;101210.47;;;24.07;39.51
13013;BME280;22580;57.670;12.006;2023-05-15T05:41:17;101198.81;;;24.13;39.50
13013;BME280;22580;57.670;12.006;2023-05-15T05:43:43;101195.69;;;24.16;39.89
13013;BME280;22580;57.670;12.006;2023-05-15T05:46:10;101197.13;;;24.71;38.83
13013;BME280;22580;57.670;12.006;2023-05-15T05:48:37;101202.41;;;24.43;39.43
13013;BME280;22580;57.670;12.006;2023-05-15T05:51:04;101195.50;;;24.92;38.51
13013;BME280;22580;57.670;12.006;2023-05-15T05:53:31;101192.38;;;25.31;37.65
13013;BME280;22580;57.670;12.006;2023-05-15T05:55:58;101195.81;;;25.39;37.09
13013;BME280;22580;57.670;12.006;2023-05-15T05:58:26;101188.41;;;25.33;36.68
13013;BME280;22580;57.670;12.006;2023-05-15T06:00:53;101159.16;;;25.12;36.99
13013;BME280;22580;57.670;12.006;2023-05-15T06:03:21;101178.56;;;25.39;36.80
13013;BME280;22580;57.670;12.006;2023-05-15T06:05:48;101175.50;;;25.48;36.55
13013;BME280;22580;57.670;12.006;2023-05-15T06:08:15;101156.72;;;25.45;36.29
13013;BME280;22580;57.670;12.006;2023-05-15T06:10:42;101178.16;;;25.63;36.19
13013;BME280;22580;57.670;12.006;2023-05-15T06:13:10;101164.03;;;25.60;36.27
13013;BME280;22580;57.670;12.006;2023-05-15T06:15:40;101173.03;;;25.75;35.85
13013;BME280;22580;57.670;12.006;2023-05-15T06:18:07;101165.31;;;25.85;35.74
13013;BME280;22580;57.670;12.006;2023-05-15T06:20:35;101162.19;;;25.88;35.32
13013;BME280;22580;57.670;12.006;2023-05-15T06:23:02;101169.41;;;25.96;35.49
13013;BME280;22580;57.670;12.006;2023-05-15T06:25:29;101158.16;;;25.84;35.18
13013;BME280;22580;57.670;12.006;2023-05-15T06:27:58;101159.31;;;25.96;34.90
13013;BME280;22580;57.670;12.006;2023-05-15T06:30:25;101161.47;;;26.07;35.18
13013;BME280;22580;57.670;12.006;2023-05-15T06:32:54;101159.31;;;25.96;34.72
13013;BME280;22580;57.670;12.006;2023-05-15T06:35:21;101153.84;;;26.03;34.92
13013;BME280;22580;57.670;12.006;2023-05-15T06:37:48;101147.72;;;26.01;34.60
13013;BME280;22580;57.670;12.006;2023-05-15T06:40:16;101154.13;;;26.14;34.69
13013;BME280;22580;57.670;12.006;2023-05-15T06:42:43;101144.69;;;26.24;34.40
13013;BME280;22580;57.670;12.006;2023-05-15T06:45:11;101137.84;;;26.06;34.23
13013;BME280;22580;57.670;12.006;2023-05-15T06:47:38;101134.88;;;26.01;34.32
13013;BME280;22580;57.670;12.006;2023-05-15T06:50:09;101140.63;;;26.13;34.11
13013;BME280;22580;57.670;12.006;2023-05-15T06:52:36;101144.31;;;26.27;34.33
13013;BME280;22580;57.670;12.006;2023-05-15T06:55:03;101129.66;;;26.41;34.08
13013;BME280;22580;57.670;12.006;2023-05-15T06:57:31;101134.59;;;26.59;33.14
13013;BME280;22580;57.670;12.006;2023-05-15T06:59:58;101126.84;;;26.75;32.89
13013;BME280;22580;57.670;12.006;2023-05-15T07:02:25;101126.94;;;26.48;32.90
13013;BME280;22580;57.670;12.006;2023-05-15T07:04:53;101122.50;;;26.47;33.10
13013;BME280;22580;57.670;12.006;2023-05-15T07:07:21;101107.88;;;26.81;32.63
13013;BME280;22580;57.670;12.006;2023-05-15T07:09:48;101120.28;;;26.70;32.96
13013;BME280;22580;57.670;12.006;2023-05-15T07:12:15;101104.06;;;26.75;33.09
13013;BME280;22580;57.670;12.006;2023-05-15T07:14:42;101112.59;;;27.06;32.90
13013;BME280;22580;57.670;12.006;2023-05-15T07:17:09;101118.09;;;27.13;33.02
13013;BME280;22580;57.670;12.006;2023-05-15T07:19:37;101116.44;;;27.25;32.78
13013;BME280;22580;57.670;12.006;2023-05-15T07:22:04;101109.25;;;27.31;32.73
13013;BME280;22580;57.670;12.006;2023-05-15T07:24:33;101088.75;;;27.27;31.80
13013;BME280;22580;57.670;12.006;2023-05-15T07:27:01;101119.34;;;27.04;32.38
13013;BME280;22580;57.670;12.006;2023-05-15T07:29:27;101074.16;;;27.06;32.16
13013;BME280;22580;57.670;12.006;2023-05-15T07:31:54;101110.25;;;27.03;31.57
13013;BME280;22580;57.670;12.006;2023-05-15T07:34:22;101095.75;;;27.42;31.73
13013;BME280;22580;57.670;12.006;2023-05-15T07:36:49;101095.56;;;27.64;31.33
13013;BME280;22580;57.670;12.006;2023-05-15T07:39:15;101077.78;;;27.80;30.89
13013;BME280;22580;57.670;12.006;2023-05-15T07:41:44;101072.84;;;28.08;30.65
13013;BME280;22580;57.670;12.006;2023-05-15T07:44:12;101091.00;;;28.29;30.43
13013;BME280;22580;57.670;12.006;2023-05-15T07:46:39;101089.75;;;28.25;30.19
13013;BME280;22580;57.670;12.006;2023-05-15T07:49:06;101082.28;;;28.38;29.23
13013;BME280;22580;57.670;12.006;2023-05-15T07:51:33;101076.78;;;28.38;28.74
13013;BME280;22580;57.670;12.006;2023-05-15T07:53:59;101097.66;;;28.59;27.08
13013;BME280;22580;57.670;12.006;2023-05-15T07:56:27;101082.16;;;28.00;27.11
13013;BME280;22580;57.670;12.006;2023-05-15T07:58:56;101064.06;;;27.27;28.17
13013;BME280;22580;57.670;12.006;2023-05-15T08:01:23;101086.22;;;27.78;28.17
13013;BME280;22580;57.670;12.006;2023-05-15T08:03:50;101095.72;;;27.82;27.50
13013;BME280;22580;57.670;12.006;2023-05-15T08:06:17;101095.28;;;27.98;26.69
13013;BME280;22580;57.670;12.006;2023-05-15T08:08:45;101066.97;;;27.91;26.92
13013;BME280;22580;57.670;12.006;2023-05-15T08:11:13;101085.53;;;28.22;26.80
13013;BME280;22580;57.670;12.006;2023-05-15T08:13:40;101070.47;;;28.31;26.81
13013;BME280;22580;57.670;12.006;2023-05-15T08:16:08;101085.94;;;28.13;26.44
13013;BME280;22580;57.670;12.006;2023-05-15T08:18:35;101066.38;;;27.56;26.69
13013;BME280;22580;57.670;12.006;2023-05-15T08:21:02;101057.81;;;28.11;26.65
13013;BME280;22580;57.670;12.006;2023-05-15T08:23:29;101077.78;;;28.57;26.11
13013;BME280;22580;57.670;12.006;2023-05-15T08:25:56;101076.75;;;28.90;25.53
13013;BME280;22580;57.670;12.006;2023-05-15T08:28:23;101074.88;;;28.84;25.64
13013;BME280;22580;57.670;12.006;2023-05-15T08:30:51;101070.25;;;29.09;26.82
13013;BME280;22580;57.670;12.006;2023-05-15T08:33:20;101049.94;;;29.10;25.91
13013;BME280;22580;57.670;12.006;2023-05-15T08:35:47;101070.63;;;29.19;25.81
13013;BME280;22580;57.670;12.006;2023-05-15T08:38:14;101075.00;;;29.27;25.91
13013;BME280;22580;57.670;12.006;2023-05-15T08:40:45;101069.19;;;29.10;26.14
13013;BME280;22580;57.670;12.006;2023-05-15T08:43:15;101058.81;;;29.12;25.02
13013;BME280;22580;57.670;12.006;2023-05-15T08:45:43;101039.69;;;28.92;25.58
13013;BME280;22580;57.670;12.006;2023-05-15T08:48:13;101069.06;;;29.55;24.34
13013;BME280;22580;57.670;12.006;2023-05-15T08:50:43;101049.56;;;29.31;24.74
13013;BME280;22580;57.670;12.006;2023-05-15T08:53:11;101041.19;;;28.82;25.49
13013;BME280;22580;57.670;12.006;2023-05-15T08:55:39;101047.53;;;28.89;25.58
13013;BME280;22580;57.670;12.006;2023-05-15T08:58:07;101056.06;;;29.37;25.31
13013;BME280;22580;57.670;12.006;2023-05-15T09:00:34;101051.69;;;29.54;24.82
13013;BME280;22580;57.670;12.006;2023-05-15T09:03:02;101050.09;;;29.65;25.00
13013;BME280;22580;57.670;12.006;2023-05-15T09:05:29;101044.91;;;29.75;24.95
13013;BME280;22580;57.670;12.006;2023-05-15T09:08:02;101035.03;;;29.86;24.83
13013;BME280;22580;57.670;12.006;2023-05-15T09:10:30;101049.78;;;30.16;24.31
13013;BME280;22580;57.670;12.006;2023-05-15T09:12:58;101025.78;;;29.98;24.46
13013;BME280;22580;57.670;12.006;2023-05-15T09:15:29;101048.41;;;30.07;24.47
13013;BME280;22580;57.670;12.006;2023-05-15T09:17:56;101044.34;;;30.28;24.73
13013;BME280;22580;57.670;12.006;2023-05-15T09:20:25;101052.00;;;30.26;24.02
13013;BME280;22580;57.670;12.006;2023-05-15T09:22:53;101046.56;;;30.19;24.06
13013;BME280;22580;57.670;12.006;2023-05-15T09:25:35;101052.69;;;30.21;24.21
13013;BME280;22580;57.670;12.006;2023-05-15T09:28:03;101054.19;;;29.99;24.77
13013;BME280;22580;57.670;12.006;2023-05-15T09:30:30;101050.56;;;29.37;25.69
13013;BME280;22580;57.670;12.006;2023-05-15T09:32:59;101048.50;;;29.76;25.75
13013;BME280;22580;57.670;12.006;2023-05-15T09:35:31;101037.09;;;29.72;25.40
13013;BME280;22580;57.670;12.006;2023-05-15T09:37:59;101039.91;;;30.09;25.03
13013;BME280;22580;57.670;12.006;2023-05-15T09:40:30;101029.34;;;30.06;25.72
13013;BME280;22580;57.670;12.006;2023-05-15T09:42:59;101031.84;;;30.25;25.06
13013;BME280;22580;57.670;12.006;2023-05-15T09:45:26;101037.97;;;30.27;25.04
13013;BME280;22580;57.670;12.006;2023-05-15T09:47:55;101040.59;;;29.61;25.66
13013;BME280;22580;57.670;12.006;2023-05-15T09:50:32;101039.94;;;26.96;29.12
13013;BME280;22580;57.670;12.006;2023-05-15T09:52:59;101033.13;;;28.93;27.55
13013;BME280;22580;57.670;12.006;2023-05-15T09:55:26;101010.84;;;27.21;29.56
13013;BME280;22580;57.670;12.006;2023-05-15T09:58:08;101030.00;;;28.77;27.92
13013;BME280;22580;57.670;12.006;2023-05-15T10:00:36;101035.72;;;29.63;26.81
13013;BME280;22580;57.670;12.006;2023-05-15T10:03:05;101027.88;;;29.42;26.78
13013;BME280;22580;57.670;12.006;2023-05-15T10:05:32;101032.25;;;29.67;25.77
13013;BME280;22580;57.670;12.006;2023-05-15T10:08:00;101022.25;;;29.73;26.25
13013;BME280;22580;57.670;12.006;2023-05-15T10:10:28;101003.16;;;29.53;26.11
13013;BME280;22580;57.670;12.006;2023-05-15T10:12:56;101017.38;;;29.50;25.86
13013;BME280;22580;57.670;12.006;2023-05-15T10:15:28;101016.00;;;29.16;26.15
13013;BME280;22580;57.670;12.006;2023-05-15T10:17:55;101005.78;;;28.60;26.98
13013;BME280;22580;57.670;12.006;2023-05-15T10:20:23;101008.09;;;27.54;28.49
13013;BME280;22580;57.670;12.006;2023-05-15T10:22:52;101005.13;;;26.76;29.21
13013;BME280;22580;57.670;12.006;2023-05-15T10:25:25;101012.88;;;25.08;31.77
13013;BME280;22580;57.670;12.006;2023-05-15T10:27:53;101006.19;;;25.17;31.60
13013;BME280;22580;57.670;12.006;2023-05-15T10:30:22;100989.91;;;25.37;30.32
13013;BME280;22580;57.670;12.006;2023-05-15T10:32:51;100984.88;;;25.06;30.87
13013;BME280;22580;57.670;12.006;2023-05-15T10:35:18;100988.91;;;28.12;27.29
13013;BME280;22580;57.670;12.006;2023-05-15T10:37:47;100983.13;;;26.50;28.71
13013;BME280;22580;57.670;12.006;2023-05-15T10:40:16;100981.09;;;27.18;29.55
13013;BME280;22580;57.670;12.006;2023-05-15T10:42:44;100986.88;;;28.70;28.30
13013;BME280;22580;57.670;12.006;2023-05-15T10:45:12;100978.75;;;28.89;26.88
13013;BME280;22580;57.670;12.006;2023-05-15T10:47:40;100980.88;;;28.87;26.73
13013;BME280;22580;57.670;12.006;2023-05-15T10:50:11;100985.03;;;28.96;26.93
13013;BME280;22580;57.670;12.006;2023-05-15T10:52:39;100982.41;;;29.08;25.96
13013;BME280;22580;57.670;12.006;2023-05-15T10:55:07;100990.16;;;29.17;26.03
13013;BME280;22580;57.670;12.006;2023-05-15T10:57:35;100983.72;;;27.78;28.25
13013;BME280;22580;57.670;12.006;2023-05-15T11:00:02;100983.53;;;28.37;27.27
13013;BME280;22580;57.670;12.006;2023-05-15T11:02:37;100964.59;;;28.54;26.96
13013;BME280;22580;57.670;12.006;2023-05-15T11:05:05;100980.31;;;28.71;27.14
13013;BME280;22580;57.670;12.006;2023-05-15T11:07:34;100972.63;;;28.87;26.68
13013;BME280;22580;57.670;12.006;2023-05-15T11:10:36;100955.91;;;28.12;27.64
13013;BME280;22580;57.670;12.006;2023-05-15T11:13:04;100956.91;;;28.31;26.45
13013;BME280;22580;57.670;12.006;2023-05-15T11:15:41;100954.50;;;27.96;27.51
13013;BME280;22580;57.670;12.006;2023-05-15T11:18:08;100949.72;;;28.30;27.48
13013;BME280;22580;57.670;12.006;2023-05-15T11:20:39;100935.75;;;28.31;27.03
13013;BME280;22580;57.670;12.006;2023-05-15T11:23:08;100943.38;;;28.92;26.42
13013;BME280;22580;57.670;12.006;2023-05-15T11:25:36;100943.47;;;29.04;26.86
13013;BME280;22580;57.670;12.006;2023-05-15T11:28:03;100919.97;;;28.52;26.69
13013;BME280;22580;57.670;12.006;2023-05-15T11:30:36;100926.34;;;29.02;26.65
13013;BME280;22580;57.670;12.006;2023-05-15T11:33:05;100920.91;;;29.57;26.23
13013;BME280;22580;57.670;12.006;2023-05-15T11:35:36;100921.34;;;29.35;25.41
13013;BME280;22580;57.670;12.006;2023-05-15T11:38:10;100914.22;;;29.28;26.18
13013;BME280;22580;57.670;12.006;2023-05-15T11:40:43;100899.25;;;29.60;25.39
13013;BME280;22580;57.670;12.006;2023-05-15T11:43:16;100908.78;;;29.94;25.16
13013;BME280;22580;57.670;12.006;2023-05-15T11:45:46;100911.09;;;28.12;27.13
13013;BME280;22580;57.670;12.006;2023-05-15T11:48:15;100909.16;;;27.74;28.08
13013;BME280;22580;57.670;12.006;2023-05-15T11:50:43;100909.94;;;27.10;28.93
13013;BME280;22580;57.670;12.006;2023-05-15T11:53:12;100893.50;;;26.84;29.30
13013;BME280;22580;57.670;12.006;2023-05-15T11:55:41;100907.41;;;28.31;27.78
13013;BME280;22580;57.670;12.006;2023-05-15T11:58:13;100883.41;;;29.74;25.24
13013;BME280;22580;57.670;12.006;2023-05-15T12:00:41;100871.97;;;28.48;26.90
13013;BME280;22580;57.670;12.006;2023-05-15T12:03:16;100886.63;;;30.73;23.98
13013;BME280;22580;57.670;12.006;2023-05-15T12:05:43;100887.97;;;31.28;23.67
13013;BME280;22580;57.670;12.006;2023-05-15T12:08:12;100892.56;;;31.86;23.45
13013;BME280;22580;57.670;12.006;2023-05-15T12:10:40;100881.59;;;31.91;22.87
13013;BME280;22580;57.670;12.006;2023-05-15T12:13:08;100884.31;;;32.03;22.67
13013;BME280;22580;57.670;12.006;2023-05-15T12:15:36;100870.50;;;32.03;22.93
13013;BME280;22580;57.670;12.006;2023-05-15T12:18:05;100885.25;;;32.54;22.27
13013;BME280;22580;57.670;12.006;2023-05-15T12:20:39;100871.66;;;30.80;23.47
13013;BME280;22580;57.670;12.006;2023-05-15T12:23:09;100862.88;;;31.82;22.39
13013;BME280;22580;57.670;12.006;2023-05-15T12:25:40;100867.53;;;32.10;23.12
13013;BME280;22580;57.670;12.006;2023-05-15T12:28:07;100869.28;;;32.28;22.74
13013;BME280;22580;57.670;12.006;2023-05-15T12:30:35;100879.78;;;32.42;22.34
13013;BME280;22580;57.670;12.006;2023-05-15T12:33:03;100873.50;;;32.64;21.98
13013;BME280;22580;57.670;12.006;2023-05-15T12:35:32;100865.69;;;32.94;21.46
13013;BME280;22580;57.670;12.006;2023-05-15T12:38:01;100864.16;;;32.81;21.08
13013;BME280;22580;57.670;12.006;2023-05-15T12:40:32;100861.31;;;32.76;21.78
13013;BME280;22580;57.670;12.006;2023-05-15T12:43:04;100823.13;;;32.78;21.18
13013;BME280;22580;57.670;12.006;2023-05-15T12:45:32;100830.31;;;32.29;20.90
13013;BME280;22580;57.670;12.006;2023-05-15T12:48:03;100838.88;;;31.99;21.28
13013;BME280;22580;57.670;12.006;2023-05-15T12:50:32;100840.81;;;32.15;21.70
13013;BME280;22580;57.670;12.006;2023-05-15T12:53:12;100834.91;;;31.78;20.36